sensor_id;sensor_type;location;lat;lon;timestamp;P1;durP1;ratioP1;P2;durP2;ratioP2
75548;SDS011;64133;56.002;37.208;2023-07-31T00:02:48;3.42;;;2.22;;
75548;SDS011;64133;56.002;37.208;2023-07-31T00:07:52;4.80;;;2.20;;
75548;SDS011;64133;56.002;37.208;2023-07-31T00:12:57;5.42;;;2.20;;
75548;SDS011;64133;56.002;37.208;2023-07-31T00:18:02;3.20;;;1.82;;
75548;SDS011;64133;56.002;37.208;2023-07-31T00:23:07;6.03;;;2.15;;
75548;SDS011;64133;56.002;37.208;2023-07-31T00:28:11;3.55;;;1.87;;
75548;SDS011;64133;56.002;37.208;2023-07-31T00:33:16;2.72;;;1.85;;
75548;SDS011;64133;56.002;37.208;2023-07-31T00:38:20;5.75;;;2.20;;
75548;SDS011;64133;56.002;37.208;2023-07-31T00:43:25;4.17;;;2.55;;
75548;SDS011;64133;56.002;37.208;2023-07-31T00:48:30;5.17;;;2.47;;
75548;SDS011;64133;56.002;37.208;2023-07-31T00:53:35;5.35;;;2.12;;
75548;SDS011;64133;56.002;37.208;2023-07-31T00:58:39;4.15;;;1.92;;
75548;SDS011;64133;56.002;37.208;2023-07-31T01:03:44;6.15;;;3.20;;
75548;SDS011;64133;56.002;37.208;2023-07-31T01:08:51;7.22;;;2.50;;
75548;SDS011;64133;56.002;37.208;2023-07-31T01:13:54;9.78;;;2.08;;
75548;SDS011;64133;56.002;37.208;2023-07-31T01:18:59;2.80;;;1.80;;
75548;SDS011;64133;56.002;37.208;2023-07-31T01:24:08;4.08;;;1.80;;
75548;SDS011;64133;56.002;37.208;2023-07-31T01:29:17;5.33;;;2.27;;
75548;SDS011;64133;56.002;37.208;2023-07-31T01:34:21;4.78;;;2.10;;
75548;SDS011;64133;56.002;37.208;2023-07-31T01:39:26;5.22;;;2.37;;
75548;SDS011;64133;56.002;37.208;2023-07-31T01:44:31;3.52;;;2.00;;
75548;SDS011;64133;56.002;37.208;2023-07-31T01:49:35;5.22;;;1.87;;
75548;SDS011;64133;56.002;37.208;2023-07-31T01:54:40;3.70;;;1.72;;
75548;SDS011;64133;56.002;37.208;2023-07-31T01:59:45;3.55;;;1.77;;
75548;SDS011;64133;56.002;37.208;2023-07-31T02:04:50;3.00;;;1.98;;
75548;SDS011;64133;56.002;37.208;2023-07-31T02:09:54;4.62;;;2.65;;
75548;SDS011;64133;56.002;37.208;2023-07-31T02:14:59;3.60;;;1.98;;
75548;SDS011;64133;56.002;37.208;2023-07-31T02:20:05;4.20;;;1.92;;
75548;SDS011;64133;56.002;37.208;2023-07-31T02:25:10;3.45;;;2.00;;
75548;SDS011;64133;56.002;37.208;2023-07-31T02:30:15;3.15;;;1.57;;
75548;SDS011;64133;56.002;37.208;2023-07-31T02:35:20;4.05;;;1.82;;
75548;SDS011;64133;56.002;37.208;2023-07-31T02:40:24;4.87;;;1.85;;
75548;SDS011;64133;56.002;37.208;2023-07-31T02:45:29;4.20;;;2.05;;
75548;SDS011;64133;56.002;37.208;2023-07-31T02:50:34;3.35;;;1.40;;
75548;SDS011;64133;56.002;37.208;2023-07-31T02:55:39;3.92;;;1.95;;
75548;SDS011;64133;56.002;37.208;2023-07-31T03:00:43;2.85;;;1.72;;
75548;SDS011;64133;56.002;37.208;2023-07-31T03:05:48;4.35;;;1.85;;
75548;SDS011;64133;56.002;37.208;2023-07-31T03:10:53;2.47;;;1.57;;
75548;SDS011;64133;56.002;37.208;2023-07-31T03:15:57;2.35;;;1.42;;
75548;SDS011;64133;56.002;37.208;2023-07-31T03:21:02;3.27;;;1.30;;
75548;SDS011;64133;56.002;37.208;2023-07-31T03:26:08;2.35;;;1.20;;
75548;SDS011;64133;56.002;37.208;2023-07-31T03:31:12;4.80;;;1.60;;
75548;SDS011;64133;56.002;37.208;2023-07-31T03:36:16;5.50;;;1.15;;
75548;SDS011;64133;56.002;37.208;2023-07-31T03:41:21;2.77;;;1.50;;
75548;SDS011;64133;56.002;37.208;2023-07-31T03:46:26;2.65;;;1.42;;
75548;SDS011;64133;56.002;37.208;2023-07-31T03:51:31;2.42;;;1.10;;
75548;SDS011;64133;56.002;37.208;2023-07-31T03:56:35;2.30;;;1.20;;
75548;SDS011;64133;56.002;37.208;2023-07-31T04:01:40;2.00;;;1.00;;
75548;SDS011;64133;56.002;37.208;2023-07-31T04:06:45;2.47;;;1.12;;
75548;SDS011;64133;56.002;37.208;2023-07-31T04:11:50;2.12;;;1.17;;
75548;SDS011;64133;56.002;37.208;2023-07-31T04:16:55;1.80;;;0.90;;
75548;SDS011;64133;56.002;37.208;2023-07-31T04:21:59;2.72;;;1.27;;
75548;SDS011;64133;56.002;37.208;2023-07-31T04:27:04;7.85;;;1.50;;
75548;SDS011;64133;56.002;37.208;2023-07-31T04:32:09;2.62;;;1.20;;
75548;SDS011;64133;56.002;37.208;2023-07-31T04:37:14;1.50;;;0.88;;
75548;SDS011;64133;56.002;37.208;2023-07-31T04:42:18;3.05;;;0.90;;
75548;SDS011;64133;56.002;37.208;2023-07-31T04:47:23;2.62;;;0.82;;
75548;SDS011;64133;56.002;37.208;2023-07-31T04:52:28;1.92;;;0.93;;
75548;SDS011;64133;56.002;37.208;2023-07-31T04:57:33;2.72;;;0.90;;
75548;SDS011;64133;56.002;37.208;2023-07-31T05:02:37;2.20;;;0.78;;
75548;SDS011;64133;56.002;37.208;2023-07-31T05:07:42;2.85;;;0.72;;
75548;SDS011;64133;56.002;37.208;2023-07-31T05:12:47;2.20;;;0.70;;
75548;SDS011;64133;56.002;37.208;2023-07-31T05:17:51;4.22;;;1.00;;
75548;SDS011;64133;56.002;37.208;2023-07-31T05:22:56;1.87;;;0.90;;
75548;SDS011;64133;56.002;37.208;2023-07-31T05:28:01;2.77;;;1.42;;
75548;SDS011;64133;56.002;37.208;2023-07-31T05:33:06;3.15;;;1.20;;
75548;SDS011;64133;56.002;37.208;2023-07-31T05:38:10;2.12;;;0.90;;
75548;SDS011;64133;56.002;37.208;2023-07-31T05:43:15;1.55;;;0.72;;
75548;SDS011;64133;56.002;37.208;2023-07-31T05:48:20;1.55;;;0.70;;
75548;SDS011;64133;56.002;37.208;2023-07-31T05:53:24;1.25;;;0.50;;
75548;SDS011;64133;56.002;37.208;2023-07-31T05:58:29;2.00;;;0.80;;
75548;SDS011;64133;56.002;37.208;2023-07-31T06:03:34;1.87;;;0.80;;
75548;SDS011;64133;56.002;37.208;2023-07-31T06:08:39;1.40;;;0.68;;
75548;SDS011;64133;56.002;37.208;2023-07-31T06:13:44;1.27;;;0.45;;
75548;SDS011;64133;56.002;37.208;2023-07-31T06:18:49;3.08;;;0.82;;
75548;SDS011;64133;56.002;37.208;2023-07-31T06:23:53;2.52;;;0.85;;
75548;SDS011;64133;56.002;37.208;2023-07-31T06:28:58;1.47;;;0.70;;
75548;SDS011;64133;56.002;37.208;2023-07-31T06:34:03;2.02;;;0.72;;
75548;SDS011;64133;56.002;37.208;2023-07-31T06:39:08;1.62;;;1.00;;
75548;SDS011;64133;56.002;37.208;2023-07-31T06:44:12;1.80;;;0.75;;
75548;SDS011;64133;56.002;37.208;2023-07-31T06:49:17;1.30;;;0.60;;
75548;SDS011;64133;56.002;37.208;2023-07-31T06:54:22;3.75;;;0.50;;
75548;SDS011;64133;56.002;37.208;2023-07-31T06:59:28;1.00;;;0.50;;
75548;SDS011;64133;56.002;37.208;2023-07-31T07:04:35;3.85;;;0.70;;
75548;SDS011;64133;56.002;37.208;2023-07-31T07:09:41;3.67;;;0.60;;
75548;SDS011;64133;56.002;37.208;2023-07-31T07:14:49;4.42;;;0.90;;
75548;SDS011;64133;56.002;37.208;2023-07-31T07:19:54;1.22;;;0.45;;
75548;SDS011;64133;56.002;37.208;2023-07-31T07:24:59;1.22;;;0.60;;
75548;SDS011;64133;56.002;37.208;2023-07-31T07:30:04;1.57;;;0.75;;
75548;SDS011;64133;56.002;37.208;2023-07-31T07:35:10;2.27;;;0.90;;
75548;SDS011;64133;56.002;37.208;2023-07-31T07:40:16;2.75;;;0.50;;
75548;SDS011;64133;56.002;37.208;2023-07-31T07:45:22;1.17;;;0.57;;
75548;SDS011;64133;56.002;37.208;2023-07-31T07:50:27;2.83;;;0.80;;
75548;SDS011;64133;56.002;37.208;2023-07-31T07:55:33;1.32;;;0.70;;
75548;SDS011;64133;56.002;37.208;2023-07-31T08:00:51;1.60;;;0.65;;
75548;SDS011;64133;56.002;37.208;2023-07-31T08:05:58;2.95;;;0.90;;
75548;SDS011;64133;56.002;37.208;2023-07-31T08:11:03;4.15;;;0.85;;
75548;SDS011;64133;56.002;37.208;2023-07-31T08:16:07;1.50;;;0.80;;
75548;SDS011;64133;56.002;37.208;2023-07-31T08:21:12;1.72;;;0.70;;
75548;SDS011;64133;56.002;37.208;2023-07-31T08:26:17;1.87;;;0.80;;
75548;SDS011;64133;56.002;37.208;2023-07-31T08:31:22;2.90;;;0.95;;
75548;SDS011;64133;56.002;37.208;2023-07-31T08:36:28;3.60;;;0.93;;
75548;SDS011;64133;56.002;37.208;2023-07-31T08:41:32;2.67;;;1.05;;
75548;SDS011;64133;56.002;37.208;2023-07-31T08:46:42;3.33;;;1.17;;
75548;SDS011;64133;56.002;37.208;2023-07-31T08:51:47;2.62;;;1.15;;
75548;SDS011;64133;56.002;37.208;2023-07-31T08:56:51;1.87;;;0.85;;
75548;SDS011;64133;56.002;37.208;2023-07-31T09:01:56;8.00;;;1.40;;
75548;SDS011;64133;56.002;37.208;2023-07-31T09:07:01;1.90;;;1.20;;
75548;SDS011;64133;56.002;37.208;2023-07-31T09:12:07;5.03;;;1.00;;
75548;SDS011;64133;56.002;37.208;2023-07-31T09:17:11;2.17;;;0.80;;
75548;SDS011;64133;56.002;37.208;2023-07-31T09:22:16;2.12;;;0.90;;
75548;SDS011;64133;56.002;37.208;2023-07-31T09:27:21;2.17;;;0.78;;
75548;SDS011;64133;56.002;37.208;2023-07-31T09:32:26;3.83;;;1.05;;
75548;SDS011;64133;56.002;37.208;2023-07-31T09:37:31;3.33;;;1.10;;
75548;SDS011;64133;56.002;37.208;2023-07-31T09:42:35;2.05;;;0.82;;
75548;SDS011;64133;56.002;37.208;2023-07-31T09:47:40;3.67;;;0.90;;
75548;SDS011;64133;56.002;37.208;2023-07-31T09:52:51;5.53;;;1.37;;
75548;SDS011;64133;56.002;37.208;2023-07-31T09:57:56;3.40;;;0.82;;
75548;SDS011;64133;56.002;37.208;2023-07-31T10:03:01;1.70;;;0.80;;
75548;SDS011;64133;56.002;37.208;2023-07-31T10:08:06;4.55;;;1.02;;
75548;SDS011;64133;56.002;37.208;2023-07-31T10:13:10;2.10;;;0.80;;
75548;SDS011;64133;56.002;37.208;2023-07-31T10:18:15;1.77;;;0.90;;
75548;SDS011;64133;56.002;37.208;2023-07-31T10:23:20;1.70;;;0.80;;
75548;SDS011;64133;56.002;37.208;2023-07-31T10:28:27;1.95;;;0.80;;
75548;SDS011;64133;56.002;37.208;2023-07-31T11:05:17;4.47;;;0.93;;
75548;SDS011;64133;56.002;37.208;2023-07-31T11:10:22;2.77;;;1.10;;
75548;SDS011;64133;56.002;37.208;2023-07-31T11:15:27;5.62;;;1.07;;
75548;SDS011;64133;56.002;37.208;2023-07-31T11:20:32;5.42;;;1.52;;
75548;SDS011;64133;56.002;37.208;2023-07-31T11:25:37;1.72;;;1.02;;
75548;SDS011;64133;56.002;37.208;2023-07-31T11:30:43;2.67;;;1.02;;
75548;SDS011;64133;56.002;37.208;2023-07-31T11:35:48;3.37;;;1.42;;
75548;SDS011;64133;56.002;37.208;2023-07-31T11:40:52;2.85;;;1.37;;
75548;SDS011;64133;56.002;37.208;2023-07-31T11:46:06;3.35;;;1.62;;
75548;SDS011;64133;56.002;37.208;2023-07-31T11:51:16;4.85;;;1.35;;
75548;SDS011;64133;56.002;37.208;2023-07-31T11:56:21;5.30;;;1.45;;
75548;SDS011;64133;56.002;37.208;2023-07-31T12:01:26;1.98;;;1.17;;
75548;SDS011;64133;56.002;37.208;2023-07-31T12:06:33;2.85;;;1.27;;
75548;SDS011;64133;56.002;37.208;2023-07-31T12:11:43;2.62;;;1.20;;
75548;SDS011;64133;56.002;37.208;2023-07-31T12:16:48;3.25;;;1.52;;
75548;SDS011;64133;56.002;37.208;2023-07-31T12:21:52;2.75;;;1.40;;
75548;SDS011;64133;56.002;37.208;2023-07-31T12:26:57;2.67;;;1.32;;
75548;SDS011;64133;56.002;37.208;2023-07-31T12:32:02;4.30;;;1.52;;
75548;SDS011;64133;56.002;37.208;2023-07-31T12:37:07;2.42;;;1.32;;
75548;SDS011;64133;56.002;37.208;2023-07-31T12:42:20;4.37;;;1.65;;
75548;SDS011;64133;56.002;37.208;2023-07-31T12:47:25;4.62;;;2.37;;
75548;SDS011;64133;56.002;37.208;2023-07-31T12:52:30;5.25;;;1.60;;
75548;SDS011;64133;56.002;37.208;2023-07-31T12:57:34;2.15;;;1.20;;
75548;SDS011;64133;56.002;37.208;2023-07-31T13:02:39;2.98;;;1.45;;
75548;SDS011;64133;56.002;37.208;2023-07-31T13:07:44;4.83;;;1.70;;
75548;SDS011;64133;56.002;37.208;2023-07-31T13:12:48;2.58;;;1.60;;
75548;SDS011;64133;56.002;37.208;2023-07-31T13:17:53;5.55;;;1.77;;
75548;SDS011;64133;56.002;37.208;2023-07-31T13:22:58;6.33;;;1.75;;
75548;SDS011;64133;56.002;37.208;2023-07-31T13:28:03;3.58;;;1.90;;
75548;SDS011;64133;56.002;37.208;2023-07-31T13:33:07;3.17;;;1.85;;
75548;SDS011;64133;56.002;37.208;2023-07-31T13:38:12;5.17;;;1.98;;
75548;SDS011;64133;56.002;37.208;2023-07-31T13:43:17;4.90;;;2.10;;
75548;SDS011;64133;56.002;37.208;2023-07-31T13:48:21;8.88;;;2.22;;
75548;SDS011;64133;56.002;37.208;2023-07-31T13:53:26;3.83;;;1.87;;
75548;SDS011;64133;56.002;37.208;2023-07-31T13:58:31;5.35;;;1.82;;
75548;SDS011;64133;56.002;37.208;2023-07-31T14:03:36;6.75;;;1.77;;
75548;SDS011;64133;56.002;37.208;2023-07-31T14:08:41;3.90;;;1.92;;
75548;SDS011;64133;56.002;37.208;2023-07-31T14:13:46;2.37;;;1.45;;
75548;SDS011;64133;56.002;37.208;2023-07-31T14:18:50;3.17;;;1.67;;
75548;SDS011;64133;56.002;37.208;2023-07-31T14:23:55;5.58;;;1.87;;
75548;SDS011;64133;56.002;37.208;2023-07-31T14:29:00;2.35;;;1.30;;
75548;SDS011;64133;56.002;37.208;2023-07-31T14:34:05;3.10;;;1.72;;
75548;SDS011;64133;56.002;37.208;2023-07-31T14:39:10;3.30;;;1.80;;
75548;SDS011;64133;56.002;37.208;2023-07-31T14:44:15;5.03;;;1.92;;
75548;SDS011;64133;56.002;37.208;2023-07-31T14:49:19;2.20;;;1.67;;
75548;SDS011;64133;56.002;37.208;2023-07-31T14:54:24;5.65;;;2.65;;
75548;SDS011;64133;56.002;37.208;2023-07-31T14:59:29;3.20;;;2.90;;
75548;SDS011;64133;56.002;37.208;2023-07-31T15:04:34;4.35;;;1.40;;
75548;SDS011;64133;56.002;37.208;2023-07-31T15:09:38;3.80;;;1.65;;
75548;SDS011;64133;56.002;37.208;2023-07-31T15:14:43;2.50;;;1.60;;
75548;SDS011;64133;56.002;37.208;2023-07-31T15:19:48;3.62;;;1.72;;
75548;SDS011;64133;56.002;37.208;2023-07-31T15:24:53;3.55;;;1.90;;
75548;SDS011;64133;56.002;37.208;2023-07-31T15:29:57;3.80;;;1.45;;
75548;SDS011;64133;56.002;37.208;2023-07-31T15:35:02;2.95;;;1.80;;
75548;SDS011;64133;56.002;37.208;2023-07-31T15:40:08;2.75;;;1.70;;
75548;SDS011;64133;56.002;37.208;2023-07-31T15:45:14;2.95;;;1.70;;
75548;SDS011;64133;56.002;37.208;2023-07-31T15:50:19;5.83;;;1.90;;
75548;SDS011;64133;56.002;37.208;2023-07-31T15:55:24;4.35;;;1.70;;
75548;SDS011;64133;56.002;37.208;2023-07-31T16:00:30;3.80;;;2.58;;
75548;SDS011;64133;56.002;37.208;2023-07-31T16:05:35;2.83;;;1.85;;
75548;SDS011;64133;56.002;37.208;2023-07-31T16:10:40;2.75;;;1.75;;
75548;SDS011;64133;56.002;37.208;2023-07-31T16:15:44;2.10;;;1.10;;
75548;SDS011;64133;56.002;37.208;2023-07-31T16:20:50;3.25;;;1.70;;
75548;SDS011;64133;56.002;37.208;2023-07-31T16:25:55;3.20;;;1.50;;
75548;SDS011;64133;56.002;37.208;2023-07-31T16:31:01;3.33;;;1.60;;
75548;SDS011;64133;56.002;37.208;2023-07-31T16:36:06;3.58;;;1.90;;
75548;SDS011;64133;56.002;37.208;2023-07-31T16:41:12;4.90;;;1.85;;
75548;SDS011;64133;56.002;37.208;2023-07-31T16:46:17;5.22;;;2.22;;
75548;SDS011;64133;56.002;37.208;2023-07-31T16:51:22;4.75;;;1.72;;
75548;SDS011;64133;56.002;37.208;2023-07-31T16:56:26;2.72;;;1.77;;
75548;SDS011;64133;56.002;37.208;2023-07-31T17:01:31;3.90;;;1.95;;
75548;SDS011;64133;56.002;37.208;2023-07-31T17:06:36;7.28;;;2.55;;
75548;SDS011;64133;56.002;37.208;2023-07-31T17:11:41;5.97;;;2.20;;
75548;SDS011;64133;56.002;37.208;2023-07-31T17:16:45;9.65;;;3.00;;
75548;SDS011;64133;56.002;37.208;2023-07-31T17:21:50;11.00;;;3.42;;
75548;SDS011;64133;56.002;37.208;2023-07-31T17:26:55;10.88;;;3.67;;
75548;SDS011;64133;56.002;37.208;2023-07-31T17:32:08;22.20;;;4.20;;
75548;SDS011;64133;56.002;37.208;2023-07-31T17:37:13;12.20;;;3.30;;
75548;SDS011;64133;56.002;37.208;2023-07-31T17:42:18;8.73;;;2.90;;
75548;SDS011;64133;56.002;37.208;2023-07-31T17:47:23;7.25;;;2.70;;
75548;SDS011;64133;56.002;37.208;2023-07-31T17:52:28;7.20;;;2.58;;
75548;SDS011;64133;56.002;37.208;2023-07-31T17:57:33;7.22;;;2.58;;
75548;SDS011;64133;56.002;37.208;2023-07-31T18:02:37;4.78;;;2.20;;
75548;SDS011;64133;56.002;37.208;2023-07-31T18:07:42;10.13;;;3.72;;
75548;SDS011;64133;56.002;37.208;2023-07-31T18:12:48;8.00;;;3.27;;
75548;SDS011;64133;56.002;37.208;2023-07-31T18:17:54;7.55;;;3.02;;
75548;SDS011;64133;56.002;37.208;2023-07-31T18:22:59;5.42;;;2.83;;
75548;SDS011;64133;56.002;37.208;2023-07-31T18:28:04;11.93;;;3.25;;
75548;SDS011;64133;56.002;37.208;2023-07-31T18:33:09;4.83;;;3.15;;
75548;SDS011;64133;56.002;37.208;2023-07-31T18:38:13;5.90;;;2.80;;
75548;SDS011;64133;56.002;37.208;2023-07-31T18:43:18;6.75;;;3.15;;
75548;SDS011;64133;56.002;37.208;2023-07-31T18:48:23;11.70;;;6.60;;
75548;SDS011;64133;56.002;37.208;2023-07-31T18:53:30;8.88;;;3.85;;
75548;SDS011;64133;56.002;37.208;2023-07-31T18:58:41;8.03;;;3.92;;
75548;SDS011;64133;56.002;37.208;2023-07-31T19:03:47;7.53;;;3.80;;
75548;SDS011;64133;56.002;37.208;2023-07-31T19:08:53;7.97;;;4.10;;
75548;SDS011;64133;56.002;37.208;2023-07-31T19:13:59;4.72;;;3.10;;
75548;SDS011;64133;56.002;37.208;2023-07-31T19:19:14;7.78;;;3.85;;
75548;SDS011;64133;56.002;37.208;2023-07-31T19:24:21;9.50;;;3.83;;
75548;SDS011;64133;56.002;37.208;2023-07-31T19:29:30;5.80;;;3.42;;
75548;SDS011;64133;56.002;37.208;2023-07-31T19:34:36;6.85;;;3.45;;
75548;SDS011;64133;56.002;37.208;2023-07-31T19:39:42;6.60;;;3.47;;
75548;SDS011;64133;56.002;37.208;2023-07-31T19:44:50;10.65;;;3.25;;
75548;SDS011;64133;56.002;37.208;2023-07-31T19:49:57;5.70;;;2.67;;
75548;SDS011;64133;56.002;37.208;2023-07-31T19:55:03;7.25;;;3.67;;
75548;SDS011;64133;56.002;37.208;2023-07-31T20:00:11;5.50;;;3.20;;
75548;SDS011;64133;56.002;37.208;2023-07-31T20:05:18;6.60;;;3.10;;
75548;SDS011;64133;56.002;37.208;2023-07-31T20:10:27;17.35;;;5.60;;
75548;SDS011;64133;56.002;37.208;2023-07-31T20:15:34;6.05;;;3.95;;
75548;SDS011;64133;56.002;37.208;2023-07-31T20:20:39;11.48;;;4.58;;
75548;SDS011;64133;56.002;37.208;2023-07-31T20:25:46;11.85;;;3.55;;
75548;SDS011;64133;56.002;37.208;2023-07-31T20:30:50;7.30;;;4.53;;
75548;SDS011;64133;56.002;37.208;2023-07-31T20:35:55;7.37;;;3.95;;
75548;SDS011;64133;56.002;37.208;2023-07-31T20:41:00;9.68;;;4.30;;
75548;SDS011;64133;56.002;37.208;2023-07-31T20:46:05;10.55;;;3.75;;
75548;SDS011;64133;56.002;37.208;2023-07-31T20:51:09;6.97;;;3.77;;
75548;SDS011;64133;56.002;37.208;2023-07-31T20:56:14;5.20;;;3.92;;
75548;SDS011;64133;56.002;37.208;2023-07-31T21:01:19;11.40;;;3.83;;
75548;SDS011;64133;56.002;37.208;2023-07-31T21:06:24;5.85;;;3.87;;
75548;SDS011;64133;56.002;37.208;2023-07-31T21:11:29;6.62;;;3.65;;
75548;SDS011;64133;56.002;37.208;2023-07-31T21:16:33;7.22;;;3.85;;
75548;SDS011;64133;56.002;37.208;2023-07-31T21:21:38;5.50;;;3.30;;
75548;SDS011;64133;56.002;37.208;2023-07-31T21:26:43;6.62;;;3.50;;
75548;SDS011;64133;56.002;37.208;2023-07-31T21:31:47;11.83;;;3.85;;
75548;SDS011;64133;56.002;37.208;2023-07-31T21:36:52;5.10;;;3.15;;
75548;SDS011;64133;56.002;37.208;2023-07-31T21:41:57;6.47;;;3.45;;
75548;SDS011;64133;56.002;37.208;2023-07-31T21:47:01;6.25;;;3.33;;
75548;SDS011;64133;56.002;37.208;2023-07-31T21:52:07;5.67;;;3.40;;
75548;SDS011;64133;56.002;37.208;2023-07-31T21:57:11;8.40;;;4.00;;
75548;SDS011;64133;56.002;37.208;2023-07-31T22:02:16;9.23;;;4.60;;
75548;SDS011;64133;56.002;37.208;2023-07-31T22:07:21;8.33;;;4.60;;
75548;SDS011;64133;56.002;37.208;2023-07-31T22:12:26;5.92;;;4.12;;
75548;SDS011;64133;56.002;37.208;2023-07-31T22:17:30;6.83;;;3.90;;
75548;SDS011;64133;56.002;37.208;2023-07-31T22:22:35;5.58;;;3.87;;
75548;SDS011;64133;56.002;37.208;2023-07-31T22:27:40;6.45;;;3.25;;
75548;SDS011;64133;56.002;37.208;2023-07-31T22:32:45;6.58;;;3.80;;
75548;SDS011;64133;56.002;37.208;2023-07-31T22:37:49;8.50;;;4.92;;
75548;SDS011;64133;56.002;37.208;2023-07-31T22:42:54;8.73;;;4.67;;
75548;SDS011;64133;56.002;37.208;2023-07-31T22:47:59;10.18;;;4.80;;
75548;SDS011;64133;56.002;37.208;2023-07-31T22:53:03;6.78;;;4.12;;
75548;SDS011;64133;56.002;37.208;2023-07-31T22:58:08;7.05;;;4.67;;
75548;SDS011;64133;56.002;37.208;2023-07-31T23:03:13;5.40;;;3.67;;
75548;SDS011;64133;56.002;37.208;2023-07-31T23:08:17;12.05;;;5.35;;
75548;SDS011;64133;56.002;37.208;2023-07-31T23:13:22;11.95;;;4.87;;
75548;SDS011;64133;56.002;37.208;2023-07-31T23:18:27;9.38;;;5.22;;
75548;SDS011;64133;56.002;37.208;2023-07-31T23:23:32;6.00;;;4.28;;
75548;SDS011;64133;56.002;37.208;2023-07-31T23:28:36;11.15;;;5.87;;
75548;SDS011;64133;56.002;37.208;2023-07-31T23:33:41;8.55;;;5.45;;
75548;SDS011;64133;56.002;37.208;2023-07-31T23:38:46;8.58;;;4.47;;
75548;SDS011;64133;56.002;37.208;2023-07-31T23:43:50;11.75;;;4.90;;
75548;SDS011;64133;56.002;37.208;2023-07-31T23:48:55;10.50;;;4.78;;
75548;SDS011;64133;56.002;37.208;2023-07-31T23:54:00;5.97;;;4.35;;
75548;SDS011;64133;56.002;37.208;2023-07-31T23:59:05;8.13;;;4.42;;
